createdAt,value
2023-05-15T00:02:02.045Z,15.98
2023-05-15T00:04:29.184Z,15.10
2023-05-15T00:06:56.298Z,17.27
2023-05-15T00:09:23.403Z,16.02
2023-05-15T00:11:51.196Z,16.40
2023-05-15T00:14:18.301Z,16.05
2023-05-15T00:16:45.428Z,15.15
2023-05-15T00:19:12.599Z,15.50
2023-05-15T00:21:39.862Z,16.48
2023-05-15T00:24:07.039Z,15.27
2023-05-15T00:26:34.256Z,14.18
2023-05-15T00:29:01.446Z,14.15
2023-05-15T00:31:28.551Z,14.18
2023-05-15T00:33:55.672Z,15.00
2023-05-15T00:36:24.234Z,14.43
2023-05-15T00:38:51.518Z,15.57
2023-05-15T00:41:19.373Z,15.20
2023-05-15T00:43:46.847Z,14.98
2023-05-15T00:46:14.335Z,15.52
2023-05-15T00:48:42.600Z,16.58
2023-05-15T00:51:10.536Z,14.43
2023-05-15T00:53:38.564Z,15.32
2023-05-15T00:56:06.825Z,14.32
2023-05-15T00:58:34.574Z,14.98
2023-05-15T01:01:01.719Z,14.75
2023-05-15T01:03:29.311Z,15.13
2023-05-15T01:05:56.455Z,16.17
2023-05-15T01:08:39.270Z,15.88
2023-05-15T01:11:08.080Z,13.73
2023-05-15T01:13:35.224Z,15.50
2023-05-15T01:16:02.416Z,13.98
2023-05-15T01:18:32.470Z,13.98
2023-05-15T01:21:03.019Z,14.43
2023-05-15T01:23:33.107Z,15.35
2023-05-15T01:26:09.368Z,14.38
2023-05-15T01:28:40.602Z,15.50
2023-05-15T01:31:11.475Z,14.45
2023-05-15T01:33:41.286Z,15.05
2023-05-15T01:36:22.524Z,14.35
2023-05-15T01:38:55.739Z,14.67
2023-05-15T01:41:28.649Z,14.35
2023-05-15T01:44:05.606Z,14.45
2023-05-15T01:46:35.510Z,14.32
2023-05-15T01:49:03.884Z,15.20
2023-05-15T01:51:31.998Z,15.52
2023-05-15T01:54:00.214Z,15.70
2023-05-15T01:56:27.876Z,15.13
2023-05-15T01:58:55.888Z,15.82
2023-05-15T02:01:23.546Z,14.18
2023-05-15T02:03:50.841Z,15.02
2023-05-15T02:06:18.092Z,14.73
2023-05-15T02:08:45.720Z,16.05
2023-05-15T02:11:13.807Z,15.75
2023-05-15T02:13:41.647Z,14.98
2023-05-15T02:16:08.882Z,15.90
2023-05-15T02:18:37.484Z,15.88
2023-05-15T02:21:04.684Z,16.30
2023-05-15T02:23:31.769Z,13.98
2023-05-15T02:26:01.982Z,14.45
2023-05-15T02:28:36.626Z,13.93
2023-05-15T02:31:10.903Z,14.73
2023-05-15T02:33:56.496Z,15.02
2023-05-15T02:36:26.133Z,14.43
2023-05-15T02:38:53.978Z,15.32
2023-05-15T02:41:22.512Z,14.98
2023-05-15T02:43:50.836Z,16.02
2023-05-15T02:46:18.580Z,14.23
2023-05-15T02:48:46.683Z,13.25
2023-05-15T02:51:14.359Z,15.25
2023-05-15T02:53:42.011Z,14.55
2023-05-15T02:56:09.906Z,15.60
2023-05-15T02:58:37.183Z,14.82
2023-05-15T03:01:04.582Z,16.23
2023-05-15T03:03:31.869Z,14.93
2023-05-15T03:06:00.891Z,14.52
2023-05-15T03:08:28.035Z,15.10
2023-05-15T03:10:55.312Z,14.63
2023-05-15T03:13:22.419Z,14.98
2023-05-15T03:15:49.500Z,13.95
2023-05-15T03:18:18.940Z,14.73
2023-05-15T03:20:46.298Z,14.88
2023-05-15T03:23:13.399Z,13.98
2023-05-15T03:25:40.466Z,15.55
2023-05-15T03:28:07.566Z,15.25
2023-05-15T03:30:34.656Z,14.50
2023-05-15T03:33:03.866Z,13.98
2023-05-15T03:35:32.378Z,13.52
2023-05-15T03:37:59.586Z,13.93
2023-05-15T03:40:26.741Z,14.32
2023-05-15T03:42:53.931Z,14.43
2023-05-15T03:45:21.278Z,13.27
2023-05-15T03:47:48.661Z,13.45
2023-05-15T03:50:16.131Z,14.55
2023-05-15T03:52:43.340Z,15.25
2023-05-15T03:55:10.585Z,14.45
2023-05-15T03:57:37.766Z,13.40
2023-05-15T04:00:10.139Z,12.65
2023-05-15T04:02:37.894Z,13.57
2023-05-15T04:05:05.664Z,13.80
2023-05-15T04:07:34.356Z,13.95
2023-05-15T04:10:01.896Z,14.20
2023-05-15T04:12:29.752Z,12.35
2023-05-15T04:15:00.866Z,13.52
2023-05-15T04:17:27.975Z,13.30
2023-05-15T04:19:55.065Z,14.05
2023-05-15T04:22:22.160Z,12.13
2023-05-15T04:24:49.242Z,12.90
2023-05-15T04:27:16.266Z,12.82
2023-05-15T04:29:43.310Z,13.38
2023-05-15T04:32:10.593Z,12.40
2023-05-15T04:34:37.788Z,11.55
2023-05-15T04:37:05.027Z,13.60
2023-05-15T04:39:32.116Z,13.23
2023-05-15T04:41:59.126Z,14.05
2023-05-15T04:44:26.573Z,12.52
2023-05-15T04:46:53.648Z,11.70
2023-05-15T04:49:20.755Z,12.60
2023-05-15T04:51:47.915Z,12.25
2023-05-15T04:54:15.001Z,11.95
2023-05-15T04:56:42.043Z,11.00
2023-05-15T04:59:10.911Z,12.23
2023-05-15T05:01:38.097Z,11.95
2023-05-15T05:04:05.342Z,10.95
2023-05-15T05:06:32.392Z,11.85
2023-05-15T05:08:59.523Z,11.85
2023-05-15T05:11:26.626Z,10.95
2023-05-15T05:13:53.668Z,11.60
2023-05-15T05:16:20.968Z,10.70
2023-05-15T05:18:48.141Z,12.05
2023-05-15T05:21:15.347Z,9.73
2023-05-15T05:23:42.442Z,10.52
2023-05-15T05:26:09.612Z,10.25
2023-05-15T05:28:36.694Z,10.70
2023-05-15T05:31:03.827Z,10.48
2023-05-15T05:33:30.958Z,9.65
2023-05-15T05:35:58.018Z,9.65
2023-05-15T05:38:26.466Z,9.55
2023-05-15T05:40:53.634Z,9.90
2023-05-15T05:43:20.879Z,10.18
2023-05-15T05:45:48.452Z,9.32
2023-05-15T05:48:15.601Z,10.60
2023-05-15T05:50:42.733Z,9.32
2023-05-15T05:53:09.998Z,9.95
2023-05-15T05:55:37.243Z,8.55
2023-05-15T05:58:08.569Z,8.27
2023-05-15T06:00:41.702Z,8.20
2023-05-15T06:03:09.214Z,9.65
2023-05-15T06:05:36.335Z,10.10
2023-05-15T06:08:04.314Z,9.23
2023-05-15T06:10:31.399Z,9.13
2023-05-15T06:12:58.495Z,8.23
2023-05-15T06:15:26.347Z,7.15
2023-05-15T06:17:53.632Z,7.40
2023-05-15T06:20:21.909Z,7.68
2023-05-15T06:22:49.426Z,7.38
2023-05-15T06:25:16.545Z,6.70
2023-05-15T06:27:43.954Z,7.63
2023-05-15T06:30:11.394Z,7.22
2023-05-15T06:32:38.603Z,6.63
2023-05-15T06:35:05.948Z,5.57
2023-05-15T06:37:33.045Z,6.45
2023-05-15T06:40:00.503Z,6.57
2023-05-15T06:42:27.578Z,6.38
2023-05-15T06:44:54.711Z,5.70
2023-05-15T06:47:21.888Z,5.70
2023-05-15T06:49:49.040Z,5.55
2023-05-15T06:52:16.166Z,6.13
2023-05-15T06:54:43.262Z,5.50
2023-05-15T06:57:10.432Z,5.95
2023-05-15T06:59:37.470Z,5.47
2023-05-15T07:02:04.777Z,5.65
2023-05-15T07:04:31.898Z,5.95
2023-05-15T07:06:59.003Z,6.20
2023-05-15T07:09:26.288Z,5.93
2023-05-15T07:11:53.476Z,5.40
2023-05-15T07:14:20.524Z,5.60
2023-05-15T07:16:47.691Z,5.70
2023-05-15T07:19:18.323Z,5.20
2023-05-15T07:21:45.428Z,5.28
2023-05-15T07:24:12.496Z,5.22
2023-05-15T07:26:50.305Z,4.85
2023-05-15T07:29:25.208Z,5.43
2023-05-15T07:31:52.330Z,5.50
2023-05-15T07:34:19.529Z,5.55
2023-05-15T07:36:46.674Z,5.45
2023-05-15T07:39:13.953Z,5.88
2023-05-15T07:41:41.086Z,5.32
2023-05-15T07:44:08.286Z,5.55
2023-05-15T07:46:35.803Z,4.97
2023-05-15T07:49:02.947Z,5.05
2023-05-15T07:51:30.037Z,5.22
2023-05-15T07:53:57.087Z,5.45
2023-05-15T07:56:24.295Z,4.85
2023-05-15T07:58:51.438Z,5.25
2023-05-15T08:01:18.582Z,4.70
2023-05-15T08:03:45.796Z,4.68
2023-05-15T08:06:12.986Z,5.15
2023-05-15T08:08:40.095Z,4.95
2023-05-15T08:11:07.163Z,5.18
2023-05-15T08:13:34.243Z,4.80
2023-05-15T08:16:01.424Z,4.70
2023-05-15T08:18:28.577Z,4.88
2023-05-15T08:20:55.917Z,5.05
2023-05-15T08:23:22.975Z,5.15
2023-05-15T08:25:50.018Z,4.90
2023-05-15T08:28:17.100Z,5.90
2023-05-15T08:30:44.202Z,4.95
2023-05-15T08:33:11.371Z,5.20
2023-05-15T08:35:38.580Z,5.13
2023-05-15T08:38:06.143Z,5.50
2023-05-15T08:40:38.933Z,4.75
2023-05-15T08:43:13.748Z,4.70
2023-05-15T08:45:41.527Z,4.68
2023-05-15T08:48:11.804Z,5.10
2023-05-15T08:50:40.179Z,5.40
2023-05-15T08:53:07.464Z,4.85
2023-05-15T08:55:34.591Z,5.43
2023-05-15T08:58:02.237Z,5.07
2023-05-15T09:00:29.753Z,5.05
2023-05-15T09:02:58.817Z,4.47
2023-05-15T09:05:26.810Z,5.18
2023-05-15T09:07:55.436Z,4.90
2023-05-15T09:10:22.798Z,5.18
2023-05-15T09:12:51.497Z,5.00
2023-05-15T09:15:22.455Z,5.40
2023-05-15T09:17:50.016Z,4.55
2023-05-15T09:20:30.662Z,4.85
2023-05-15T09:22:58.768Z,4.95
2023-05-15T09:25:42.578Z,4.47
2023-05-15T09:28:10.770Z,4.18
2023-05-15T09:30:42.832Z,4.32
2023-05-15T09:33:10.322Z,4.53
2023-05-15T09:35:38.578Z,4.30
2023-05-15T09:38:09.495Z,4.47
2023-05-15T09:40:36.962Z,4.20
2023-05-15T09:43:04.197Z,4.47
2023-05-15T09:45:31.437Z,5.00
2023-05-15T09:48:05.120Z,5.10
2023-05-15T09:50:34.163Z,4.55
2023-05-15T09:53:01.308Z,5.20
2023-05-15T09:55:28.588Z,4.68
2023-05-15T09:58:06.418Z,5.28
2023-05-15T10:00:34.275Z,4.60
2023-05-15T10:03:02.755Z,4.82
2023-05-15T10:05:42.648Z,4.75
2023-05-15T10:08:11.323Z,5.05
2023-05-15T10:10:38.785Z,4.95
2023-05-15T10:13:07.782Z,5.18
2023-05-15T10:15:35.334Z,4.72
2023-05-15T10:18:04.868Z,5.30
2023-05-15T10:20:32.504Z,4.78
2023-05-15T10:23:01.107Z,5.28
2023-05-15T10:25:28.914Z,5.40
2023-05-15T10:27:56.755Z,5.05
2023-05-15T10:30:24.306Z,5.90
2023-05-15T10:32:51.987Z,5.25
2023-05-15T10:35:19.240Z,6.30
2023-05-15T10:37:47.807Z,5.28
2023-05-15T10:40:16.023Z,6.03
2023-05-15T10:42:43.660Z,6.43
2023-05-15T10:45:11.227Z,6.15
2023-05-15T10:47:39.439Z,5.72
2023-05-15T10:50:06.882Z,5.97
2023-05-15T10:52:34.387Z,6.00
2023-05-15T10:55:01.623Z,6.10
2023-05-15T10:57:31.682Z,5.68
2023-05-15T10:59:59.298Z,5.77
2023-05-15T11:02:29.418Z,5.38
2023-05-15T11:05:00.394Z,5.93
2023-05-15T11:07:28.256Z,6.38
2023-05-15T11:09:56.382Z,5.78
2023-05-15T11:12:24.593Z,5.65
2023-05-15T11:14:57.709Z,6.10
2023-05-15T11:17:24.911Z,4.88
2023-05-15T11:19:52.034Z,5.15
2023-05-15T11:22:20.872Z,4.60
2023-05-15T11:24:52.048Z,4.40
2023-05-15T11:27:20.494Z,5.63
2023-05-15T11:30:06.584Z,5.40
2023-05-15T11:32:43.544Z,4.85
2023-05-15T11:35:14.025Z,4.45
2023-05-15T11:37:44.556Z,5.00
2023-05-15T11:40:30.787Z,4.30
2023-05-15T11:43:00.995Z,4.57
2023-05-15T11:45:38.387Z,4.30
2023-05-15T11:48:06.706Z,4.28
2023-05-15T11:50:35.436Z,4.80
2023-05-15T11:53:04.155Z,4.30
2023-05-15T11:55:32.361Z,5.32
2023-05-15T11:57:59.887Z,3.33
2023-05-15T12:00:27.229Z,4.00
2023-05-15T12:02:54.802Z,4.03
2023-05-15T12:05:22.162Z,3.85
2023-05-15T12:07:49.344Z,3.45
2023-05-15T12:10:16.544Z,3.15
2023-05-15T12:12:44.561Z,3.63
2023-05-15T12:15:12.328Z,3.58
2023-05-15T12:17:42.762Z,3.10
2023-05-15T12:20:17.794Z,3.30
2023-05-15T12:22:45.421Z,3.78
2023-05-15T12:25:13.287Z,4.05
2023-05-15T12:27:41.016Z,3.45
2023-05-15T12:30:08.690Z,3.80
2023-05-15T12:32:36.468Z,3.78
2023-05-15T12:35:03.954Z,4.15
2023-05-15T12:37:36.262Z,3.85
2023-05-15T12:40:12.102Z,3.70
2023-05-15T12:42:46.191Z,3.70
2023-05-15T12:45:14.425Z,4.05
2023-05-15T12:47:42.582Z,3.67
2023-05-15T12:50:23.152Z,3.72
2023-05-15T12:52:50.520Z,3.83
2023-05-15T12:55:18.151Z,4.50
2023-05-15T12:57:45.352Z,4.03
2023-05-15T13:00:13.617Z,3.60
2023-05-15T13:02:43.762Z,4.22
2023-05-15T13:05:11.299Z,3.42
2023-05-15T13:07:39.360Z,3.63
2023-05-15T13:10:07.378Z,2.78
2023-05-15T13:12:40.921Z,3.13
2023-05-15T13:15:08.339Z,2.47
2023-05-15T13:17:35.716Z,2.70
2023-05-15T13:20:03.299Z,3.10
2023-05-15T13:22:30.990Z,3.05
2023-05-15T13:24:58.331Z,3.75
2023-05-15T13:27:25.504Z,3.00
2023-05-15T13:29:52.610Z,3.28
2023-05-15T13:32:19.692Z,3.92
2023-05-15T13:34:46.782Z,4.13
2023-05-15T13:37:13.914Z,3.42
2023-05-15T13:39:40.953Z,4.05
2023-05-15T13:42:08.055Z,3.72
2023-05-15T13:44:37.504Z,3.83
2023-05-15T13:47:04.944Z,3.65
2023-05-15T13:49:32.157Z,4.15
2023-05-15T13:51:59.317Z,3.80
2023-05-15T13:54:26.520Z,4.10
2023-05-15T13:56:53.644Z,3.97
2023-05-15T13:59:21.076Z,3.70
2023-05-15T14:01:48.245Z,3.88
2023-05-15T14:04:15.673Z,4.22
2023-05-15T14:06:42.768Z,4.38
2023-05-15T14:09:09.889Z,4.13
2023-05-15T14:11:37.034Z,3.63
2023-05-15T14:14:04.199Z,3.75
2023-05-15T14:16:31.280Z,4.55
2023-05-15T14:18:58.689Z,4.05
2023-05-15T14:21:25.908Z,4.40
2023-05-15T14:23:53.169Z,4.65
2023-05-15T14:26:20.288Z,4.00
2023-05-15T14:28:47.424Z,3.88
2023-05-15T14:31:14.532Z,3.55
2023-05-15T14:33:41.886Z,3.30
2023-05-15T14:36:09.140Z,3.70
2023-05-15T14:38:38.508Z,3.50
2023-05-15T14:41:06.057Z,3.65
2023-05-15T14:43:33.141Z,3.88
2023-05-15T14:46:00.312Z,3.55
2023-05-15T14:48:27.507Z,3.70
2023-05-15T14:50:54.600Z,3.92
2023-05-15T14:53:21.714Z,3.90
2023-05-15T14:55:48.871Z,4.47
2023-05-15T14:58:16.076Z,4.50
2023-05-15T15:00:43.534Z,4.00
2023-05-15T15:03:11.312Z,4.13
2023-05-15T15:05:38.488Z,4.50
2023-05-15T15:08:05.617Z,4.55
2023-05-15T15:10:33.820Z,5.10
2023-05-15T15:13:01.036Z,5.05
2023-05-15T15:15:28.165Z,5.15
2023-05-15T15:17:57.284Z,6.40
2023-05-15T15:20:25.405Z,5.15
2023-05-15T15:22:53.056Z,5.43
2023-05-15T15:25:20.529Z,5.07
2023-05-15T15:27:48.140Z,5.32
2023-05-15T15:30:15.857Z,6.18
2023-05-15T15:32:44.077Z,4.65
2023-05-15T15:35:11.663Z,5.07
2023-05-15T15:37:39.020Z,5.18
2023-05-15T15:40:11.075Z,5.53
2023-05-15T15:42:38.423Z,5.30
2023-05-15T15:45:05.803Z,5.50
2023-05-15T15:47:32.981Z,5.03
2023-05-15T15:50:00.523Z,5.38
2023-05-15T15:52:27.887Z,5.68
2023-05-15T15:54:54.985Z,4.88
2023-05-15T15:57:22.589Z,5.13
2023-05-15T15:59:49.813Z,4.88
2023-05-15T16:02:17.520Z,5.13
2023-05-15T16:04:44.761Z,5.68
2023-05-15T16:07:11.836Z,5.70
2023-05-15T16:09:38.910Z,5.93
2023-05-15T16:12:06.223Z,6.03
2023-05-15T16:14:33.346Z,6.70
2023-05-15T16:17:02.682Z,6.85
2023-05-15T16:19:30.450Z,6.95
2023-05-15T16:21:57.554Z,7.68
2023-05-15T16:24:24.674Z,6.25
2023-05-15T16:26:51.865Z,6.18
2023-05-15T16:29:20.047Z,6.10
2023-05-15T16:31:48.216Z,6.35
2023-05-15T16:34:15.731Z,6.65
2023-05-15T16:36:43.487Z,6.63
2023-05-15T16:39:11.200Z,7.68
2023-05-15T16:41:38.417Z,6.70
2023-05-15T16:44:10.698Z,6.47
2023-05-15T16:46:38.202Z,6.47
2023-05-15T16:49:05.664Z,6.35
2023-05-15T16:51:32.819Z,5.72
2023-05-15T16:53:59.991Z,5.72
2023-05-15T16:56:27.175Z,5.50
2023-05-15T16:58:57.105Z,4.78
2023-05-15T17:01:24.278Z,5.43
2023-05-15T17:03:52.762Z,5.25
2023-05-15T17:06:20.145Z,5.43
2023-05-15T17:08:47.313Z,5.72
2023-05-15T17:11:14.573Z,4.93
2023-05-15T17:13:41.655Z,5.28
2023-05-15T17:16:08.994Z,4.78
2023-05-15T17:18:36.286Z,5.78
2023-05-15T17:21:03.726Z,5.63
2023-05-15T17:23:30.872Z,5.40
2023-05-15T17:25:58.078Z,5.47
2023-05-15T17:28:25.339Z,6.50
2023-05-15T17:30:52.412Z,5.97
2023-05-15T17:33:19.444Z,7.05
2023-05-15T17:35:46.677Z,6.15
2023-05-15T17:38:13.802Z,6.20
2023-05-15T17:40:41.117Z,7.07
2023-05-15T17:43:10.161Z,7.22
2023-05-15T17:45:37.340Z,6.47
2023-05-15T17:48:05.001Z,6.43
2023-05-15T17:50:32.365Z,6.43
2023-05-15T17:52:59.870Z,6.32
2023-05-15T17:55:27.246Z,6.70
2023-05-15T17:57:54.437Z,5.68
2023-05-15T18:00:21.593Z,5.65
2023-05-15T18:02:48.731Z,6.55
2023-05-15T18:05:16.030Z,5.47
2023-05-15T18:07:43.392Z,6.28
2023-05-15T18:10:10.550Z,5.80
2023-05-15T18:12:37.675Z,5.55
2023-05-15T18:15:04.951Z,4.97
2023-05-15T18:17:32.102Z,5.32
2023-05-15T18:19:59.307Z,5.55
2023-05-15T18:22:26.412Z,5.05
2023-05-15T18:24:53.556Z,5.10
2023-05-15T18:27:20.851Z,5.03
2023-05-15T18:29:47.982Z,3.75
2023-05-15T18:32:15.048Z,3.85
2023-05-15T18:34:42.205Z,4.35
2023-05-15T18:37:09.272Z,4.20
2023-05-15T18:39:38.206Z,4.43
2023-05-15T18:42:06.156Z,4.20
2023-05-15T18:44:34.842Z,4.03
2023-05-15T18:47:02.392Z,4.70
2023-05-15T18:49:29.726Z,5.03
2023-05-15T18:51:57.919Z,5.13
2023-05-15T18:54:25.093Z,6.03
2023-05-15T18:56:52.244Z,5.22
2023-05-15T18:59:19.957Z,6.10
2023-05-15T19:01:49.013Z,5.40
2023-05-15T19:04:16.229Z,5.50
2023-05-15T19:06:43.890Z,6.45
2023-05-15T19:09:11.032Z,6.22
2023-05-15T19:11:38.122Z,6.03
2023-05-15T19:14:05.382Z,4.53
2023-05-15T19:16:32.975Z,4.85
2023-05-15T19:19:00.298Z,5.18
2023-05-15T19:21:27.489Z,4.38
2023-05-15T19:23:54.677Z,3.42
2023-05-15T19:26:21.962Z,3.17
2023-05-15T19:28:49.244Z,3.10
2023-05-15T19:31:27.899Z,2.33
2023-05-15T19:33:58.753Z,1.90
2023-05-15T19:36:25.931Z,1.20
2023-05-15T19:38:53.128Z,1.23
2023-05-15T19:41:20.977Z,0.90
2023-05-15T19:43:50.512Z,1.13
2023-05-15T19:46:18.416Z,0.90
2023-05-15T19:48:46.067Z,1.10
2023-05-15T19:51:13.497Z,1.20
2023-05-15T19:53:41.378Z,1.00
2023-05-15T19:56:08.617Z,1.42
2023-05-15T19:58:35.807Z,1.02
2023-05-15T20:01:02.918Z,1.08
2023-05-15T20:03:33.287Z,1.20
2023-05-15T20:06:01.424Z,1.60
2023-05-15T20:08:28.945Z,1.13
2023-05-15T20:10:56.165Z,1.10
2023-05-15T20:13:23.758Z,0.80
2023-05-15T20:15:57.936Z,0.88
2023-05-15T20:18:31.456Z,0.73
2023-05-15T20:21:00.088Z,0.65
2023-05-15T20:23:27.237Z,0.68
2023-05-15T20:25:54.374Z,0.75
2023-05-15T20:28:24.879Z,0.63
2023-05-15T20:30:52.470Z,1.17
2023-05-15T20:33:19.806Z,0.63
2023-05-15T20:35:47.100Z,1.08
2023-05-15T20:38:14.518Z,0.77
2023-05-15T20:40:41.637Z,0.70
2023-05-15T20:43:08.779Z,0.98
2023-05-15T20:45:36.056Z,1.13
2023-05-15T20:48:03.331Z,1.00
2023-05-15T20:50:30.434Z,1.45
2023-05-15T20:52:57.633Z,0.93
2023-05-15T20:55:24.851Z,1.27
2023-05-15T20:57:52.034Z,0.80
2023-05-15T21:00:19.167Z,0.68
2023-05-15T21:02:46.909Z,0.90
2023-05-15T21:05:14.315Z,1.08
2023-05-15T21:07:41.534Z,1.17
2023-05-15T21:10:09.002Z,0.90
2023-05-15T21:12:36.161Z,1.00
2023-05-15T21:15:04.268Z,0.88
2023-05-15T21:17:31.320Z,0.93
2023-05-15T21:19:58.500Z,0.80
2023-05-15T21:22:25.691Z,0.98
2023-05-15T21:24:53.078Z,0.90
2023-05-15T21:27:20.162Z,1.58
2023-05-15T21:29:47.213Z,0.70
2023-05-15T21:32:14.278Z,0.80
2023-05-15T21:34:41.398Z,0.60
2023-05-15T21:37:08.491Z,0.70
2023-05-15T21:39:35.613Z,0.90
2023-05-15T21:42:02.753Z,1.13
2023-05-15T21:44:29.860Z,1.15
2023-05-15T21:46:57.009Z,1.35
2023-05-15T21:49:25.454Z,1.05
2023-05-15T21:51:52.542Z,0.80
2023-05-15T21:54:19.780Z,1.15
2023-05-15T21:56:46.843Z,0.63
2023-05-15T21:59:14.542Z,1.00
2023-05-15T22:01:41.766Z,0.82
2023-05-15T22:04:09.105Z,1.08
2023-05-15T22:06:36.226Z,0.90
2023-05-15T22:09:03.517Z,0.60
2023-05-15T22:11:30.828Z,1.60
2023-05-15T22:13:58.025Z,1.23
2023-05-15T22:16:25.110Z,1.25
2023-05-15T22:18:53.854Z,1.33
2023-05-15T22:21:21.203Z,1.08
2023-05-15T22:23:48.380Z,0.82
2023-05-15T22:26:15.475Z,0.98
2023-05-15T22:28:42.578Z,0.88
2023-05-15T22:31:09.746Z,1.20
2023-05-15T22:33:36.860Z,1.10
2023-05-15T22:36:04.030Z,1.20
2023-05-15T22:38:31.355Z,1.00
2023-05-15T22:40:58.506Z,1.70
2023-05-15T22:43:25.683Z,1.27
2023-05-15T22:45:52.831Z,0.98
2023-05-15T22:48:19.988Z,1.17
2023-05-15T22:50:47.564Z,1.60
2023-05-15T22:53:15.216Z,1.10
2023-05-15T22:55:42.658Z,1.17
2023-05-15T22:58:09.721Z,1.10
2023-05-15T23:00:36.832Z,1.48
2023-05-15T23:03:04.058Z,1.88
2023-05-15T23:05:31.215Z,1.52
2023-05-15T23:07:58.317Z,1.30
2023-05-15T23:10:25.752Z,1.65
2023-05-15T23:12:53.171Z,1.35
2023-05-15T23:15:20.314Z,1.73
2023-05-15T23:17:47.629Z,1.88
2023-05-15T23:20:15.534Z,1.85
2023-05-15T23:22:42.608Z,2.08
2023-05-15T23:25:09.895Z,2.53
2023-05-15T23:27:37.006Z,1.50
2023-05-15T23:30:04.412Z,2.25
2023-05-15T23:32:31.625Z,1.50
2023-05-15T23:34:59.369Z,2.38
2023-05-15T23:37:26.439Z,2.85
2023-05-15T23:39:56.508Z,1.67
2023-05-15T23:42:24.031Z,1.42
2023-05-15T23:44:51.194Z,2.13
2023-05-15T23:47:18.374Z,1.70
2023-05-15T23:49:45.602Z,1.80
2023-05-15T23:52:12.712Z,1.90
2023-05-15T23:54:40.246Z,1.83
2023-05-15T23:57:07.332Z,1.77
2023-05-15T23:59:34.455Z,1.70
